Time;durP1;ratioP1;P1;durP2;ratioP2;P2;SDS_P1;SDS_P2;PMS_P1;PMS_P2;Temp;Humidity;BMP_temperature;BMP_pressure;BME280_temperature;BME280_humidity;BME280_pressure;Samples;Min_cycle;Max_cycle;Signal;HPM_P1;HPM_P2
2019/11/04 00:02:46;;;;;;;1.03;1.01;;;;;;;20.85;54.95;98181.06;;;;-50
2019/11/04 00:05:46;;;;;;;1.17;1.08;;;;;;;20.83;54.94;98181.08;;;;-50
2019/11/04 00:08:46;;;;;;;1.21;1.12;;;;;;;20.83;55.00;98181.08;;;;-50
2019/11/04 00:11:46;;;;;;;1.30;1.20;;;;;;;20.82;54.98;98182.67;;;;-50
2019/11/04 00:14:46;;;;;;;1.19;1.10;;;;;;;20.82;54.96;98184.91;;;;-50
2019/11/04 00:17:46;;;;;;;1.30;1.20;;;;;;;20.81;54.97;98188.11;;;;-50
2019/11/04 00:20:46;;;;;;;1.30;1.20;;;;;;;20.80;55.02;98185.55;;;;-50
2019/11/04 00:23:47;;;;;;;1.25;1.15;;;;;;;20.79;54.97;98187.81;;;;-50
2019/11/04 00:26:46;;;;;;;1.30;1.20;;;;;;;20.78;54.98;98192.78;;;;-50
2019/11/04 00:29:46;;;;;;;1.22;1.12;;;;;;;20.77;55.02;98187.75;;;;-50
2019/11/04 00:32:46;;;;;;;1.10;1.10;;;;;;;20.76;55.01;98187.23;;;;-50
2019/11/04 00:35:46;;;;;;;1.20;1.10;;;;;;;20.76;55.00;98186.73;;;;-50
2019/11/04 00:38:46;;;;;;;1.30;1.20;;;;;;;20.74;55.00;98192.59;;;;-50
2019/11/04 00:41:46;;;;;;;1.25;1.15;;;;;;;20.73;55.02;98190.92;;;;-50
2019/11/04 00:44:46;;;;;;;1.17;1.10;;;;;;;20.73;54.99;98194.67;;;;-50
2019/11/04 00:47:46;;;;;;;1.16;1.11;;;;;;;20.73;54.99;98202.89;;;;-50
2019/11/04 00:50:46;;;;;;;1.10;1.10;;;;;;;20.71;55.02;98197.27;;;;-50
2019/11/04 00:53:46;;;;;;;1.09;1.08;;;;;;;20.70;55.02;98206.52;;;;-50
2019/11/04 00:56:46;;;;;;;1.23;1.10;;;;;;;20.69;55.07;98212.72;;;;-50
2019/11/04 00:59:46;;;;;;;1.16;1.09;;;;;;;20.68;55.02;98209.95;;;;-50
2019/11/04 01:02:46;;;;;;;1.01;1.00;;;;;;;20.67;55.04;98214.22;;;;-50
2019/11/04 01:05:46;;;;;;;1.07;1.03;;;;;;;20.67;55.01;98217.23;;;;-50
2019/11/04 01:08:46;;;;;;;1.13;1.05;;;;;;;20.66;55.04;98218.91;;;;-50
2019/11/04 01:11:46;;;;;;;1.00;1.00;;;;;;;20.65;55.07;98225.36;;;;-50
2019/11/04 01:14:46;;;;;;;1.05;1.05;;;;;;;20.65;55.03;98222.67;;;;-50
2019/11/04 01:17:46;;;;;;;1.09;1.09;;;;;;;20.63;55.04;98223.24;;;;-50
2019/11/04 01:20:46;;;;;;;1.13;1.10;;;;;;;20.62;55.07;98219.75;;;;-50
2019/11/04 01:23:46;;;;;;;1.19;1.10;;;;;;;20.62;55.11;98217.22;;;;-50
2019/11/04 01:26:46;;;;;;;1.00;1.00;;;;;;;20.61;55.11;98220.32;;;;-50
2019/11/04 01:29:45;;;;;;;1.16;1.10;;;;;;;20.61;55.12;98222.24;;;;-50
2019/11/04 01:32:46;;;;;;;1.04;1.04;;;;;;;20.60;55.07;98219.81;;;;-50
2019/11/04 01:35:46;;;;;;;1.15;1.08;;;;;;;20.59;55.11;98226.92;;;;-50
2019/11/04 01:38:46;;;;;;;1.00;1.00;;;;;;;20.58;55.11;98223.81;;;;-50
2019/11/04 01:41:46;;;;;;;1.00;1.00;;;;;;;20.57;55.09;98224.48;;;;-50
2019/11/04 01:44:46;;;;;;;1.01;0.99;;;;;;;20.57;55.09;98220.56;;;;-50
2019/11/04 01:47:46;;;;;;;1.36;1.10;;;;;;;20.55;55.14;98218.77;;;;-50
2019/11/04 01:50:46;;;;;;;1.17;1.03;;;;;;;20.55;55.16;98218.62;;;;-50
2019/11/04 01:53:46;;;;;;;0.95;0.95;;;;;;;20.55;55.15;98222.55;;;;-49
2019/11/04 01:56:46;;;;;;;1.20;1.10;;;;;;;20.54;55.12;98227.75;;;;-50
2019/11/04 01:59:46;;;;;;;1.07;1.07;;;;;;;20.53;55.15;98230.27;;;;-50
2019/11/04 02:02:46;;;;;;;1.03;1.03;;;;;;;20.54;55.15;98233.95;;;;-50
2019/11/04 02:05:46;;;;;;;1.21;1.10;;;;;;;20.53;55.16;98230.03;;;;-49
2019/11/04 02:08:46;;;;;;;1.00;1.00;;;;;;;20.52;55.16;98229.02;;;;-50
2019/11/04 02:11:46;;;;;;;1.00;1.00;;;;;;;20.51;55.17;98233.20;;;;-50
2019/11/04 02:14:46;;;;;;;1.01;1.01;;;;;;;20.51;55.19;98239.24;;;;-50
2019/11/04 02:17:46;;;;;;;1.00;1.00;;;;;;;20.50;55.19;98235.70;;;;-50
2019/11/04 02:20:46;;;;;;;1.06;1.06;;;;;;;20.49;55.21;98236.45;;;;-50
2019/11/04 02:23:46;;;;;;;1.09;1.09;;;;;;;20.49;55.19;98238.04;;;;-50
2019/11/04 02:26:46;;;;;;;1.03;1.01;;;;;;;20.48;55.22;98241.05;;;;-50
2019/11/04 02:29:46;;;;;;;1.09;1.09;;;;;;;20.48;55.26;98242.64;;;;-50
2019/11/04 02:32:46;;;;;;;1.00;1.00;;;;;;;20.46;55.21;98232.51;;;;-50
2019/11/04 02:35:46;;;;;;;1.03;1.03;;;;;;;20.47;55.17;98230.42;;;;-50
2019/11/04 02:38:46;;;;;;;1.16;1.08;;;;;;;20.45;55.18;98231.33;;;;-50
2019/11/04 02:41:46;;;;;;;1.00;1.00;;;;;;;20.45;55.19;98231.07;;;;-50
2019/11/04 02:44:46;;;;;;;0.91;0.91;;;;;;;20.45;55.19;98225.72;;;;-50
2019/11/04 02:47:46;;;;;;;1.07;1.07;;;;;;;20.44;55.18;98228.56;;;;-50
2019/11/04 02:50:46;;;;;;;0.99;0.99;;;;;;;20.42;55.22;98221.42;;;;-50
2019/11/04 02:53:45;;;;;;;1.00;1.00;;;;;;;20.43;55.23;98226.89;;;;-50
2019/11/04 02:56:45;;;;;;;1.11;1.05;;;;;;;20.42;55.20;98230.30;;;;-50
2019/11/04 02:59:46;;;;;;;1.00;1.00;;;;;;;20.42;55.25;98231.58;;;;-50
2019/11/04 03:02:46;;;;;;;1.02;1.02;;;;;;;20.41;55.24;98224.92;;;;-50
2019/11/04 03:05:46;;;;;;;1.11;1.11;;;;;;;20.41;55.23;98228.38;;;;-50
2019/11/04 03:08:46;;;;;;;1.14;1.09;;;;;;;20.39;55.23;98224.11;;;;-50
2019/11/04 03:11:46;;;;;;;1.03;1.01;;;;;;;20.38;55.25;98231.80;;;;-50
2019/11/04 03:14:46;;;;;;;1.32;1.10;;;;;;;20.39;55.23;98230.54;;;;-50
2019/11/04 03:17:46;;;;;;;1.03;1.03;;;;;;;20.39;55.21;98232.73;;;;-50
2019/11/04 03:20:46;;;;;;;1.19;1.17;;;;;;;20.37;55.23;98230.55;;;;-50
2019/11/04 03:23:51;;;;;;;0.95;0.93;;;;;;;20.36;55.25;98224.77;;;;-50
2019/11/04 03:26:46;;;;;;;0.90;0.90;;;;;;;20.35;55.27;98225.58;;;;-50
2019/11/04 03:29:46;;;;;;;0.88;0.88;;;;;;;20.35;55.27;98227.34;;;;-50
2019/11/04 03:32:46;;;;;;;0.91;0.91;;;;;;;20.35;55.27;98235.06;;;;-50
2019/11/04 03:35:46;;;;;;;0.99;0.99;;;;;;;20.34;55.26;98232.36;;;;-50
2019/11/04 03:38:46;;;;;;;0.87;0.87;;;;;;;20.34;55.28;98230.11;;;;-50
2019/11/04 03:41:46;;;;;;;0.99;0.99;;;;;;;20.33;55.26;98230.27;;;;-50
2019/11/04 03:44:46;;;;;;;0.99;0.99;;;;;;;20.33;55.28;98234.95;;;;-50
2019/11/04 03:47:46;;;;;;;1.05;1.05;;;;;;;20.33;55.28;98234.38;;;;-50
2019/11/04 03:50:46;;;;;;;1.09;1.05;;;;;;;20.32;55.28;98238.55;;;;-50
2019/11/04 03:55:46;;;;;;;0.99;0.99;;;;;;;20.32;55.29;98237.38;;;;-50
2019/11/04 04:00:46;;;;;;;0.90;0.90;;;;;;;20.31;55.28;98239.98;;;;-50
2019/11/04 04:03:46;;;;;;;0.90;0.90;;;;;;;20.31;55.30;98239.63;;;;-50
2019/11/04 04:06:46;;;;;;;0.90;0.90;;;;;;;20.31;55.30;98238.89;;;;-50
2019/11/04 04:09:46;;;;;;;0.90;0.90;;;;;;;20.29;55.28;98231.43;;;;-50
2019/11/04 04:12:46;;;;;;;0.91;0.91;;;;;;;20.29;55.33;98234.59;;;;-50
2019/11/04 04:15:46;;;;;;;1.07;0.95;;;;;;;20.29;55.30;98233.18;;;;-50
2019/11/04 04:18:46;;;;;;;1.07;1.07;;;;;;;20.29;55.32;98236.10;;;;-50
2019/11/04 04:21:46;;;;;;;1.07;1.07;;;;;;;20.28;55.31;98230.16;;;;-50
2019/11/04 04:24:46;;;;;;;0.99;0.99;;;;;;;20.26;55.32;98222.79;;;;-50
2019/11/04 04:27:46;;;;;;;0.92;0.92;;;;;;;20.27;55.31;98227.88;;;;-50
2019/11/04 04:30:46;;;;;;;1.00;1.00;;;;;;;20.26;55.34;98224.04;;;;-50
2019/11/04 04:33:46;;;;;;;0.99;0.99;;;;;;;20.25;55.34;98224.53;;;;-49
2019/11/04 04:36:46;;;;;;;1.08;0.99;;;;;;;20.25;55.32;98231.67;;;;-50
2019/11/04 04:39:46;;;;;;;0.88;0.88;;;;;;;20.25;55.35;98230.72;;;;-50
2019/11/04 04:42:46;;;;;;;0.90;0.90;;;;;;;20.24;55.34;98229.39;;;;-50
2019/11/04 04:45:45;;;;;;;1.10;1.09;;;;;;;20.24;55.34;98229.05;;;;-50
2019/11/04 04:48:46;;;;;;;0.90;0.90;;;;;;;20.24;55.34;98234.16;;;;-50
2019/11/04 04:51:46;;;;;;;0.91;0.91;;;;;;;20.23;55.35;98227.20;;;;-50
2019/11/04 04:54:46;;;;;;;1.01;1.01;;;;;;;20.23;55.35;98233.48;;;;-50
2019/11/04 04:57:46;;;;;;;0.85;0.85;;;;;;;20.22;55.38;98237.85;;;;-50
2019/11/04 05:00:46;;;;;;;0.90;0.90;;;;;;;20.22;55.38;98234.73;;;;-50
2019/11/04 05:03:46;;;;;;;0.91;0.91;;;;;;;20.22;55.34;98236.59;;;;-50
2019/11/04 05:06:46;;;;;;;1.04;0.90;;;;;;;20.20;55.37;98231.80;;;;-50
2019/11/04 05:10:50;;;;;;;0.90;0.90;;;;;;;20.21;55.35;98236.98;;;;-50
2019/11/04 05:13:46;;;;;;;0.91;0.91;;;;;;;20.21;55.41;98248.64;;;;-50
2019/11/04 05:16:46;;;;;;;0.89;0.89;;;;;;;20.22;55.37;98252.24;;;;-50
2019/11/04 05:19:46;;;;;;;0.90;0.90;;;;;;;20.22;55.37;98253.77;;;;-50
2019/11/04 05:22:46;;;;;;;1.04;1.00;;;;;;;20.23;55.36;98248.99;;;;-50
2019/11/04 05:25:46;;;;;;;0.92;0.92;;;;;;;20.25;55.39;98249.84;;;;-50
2019/11/04 05:28:45;;;;;;;0.91;0.91;;;;;;;20.27;55.38;98255.72;;;;-50
2019/11/04 05:31:46;;;;;;;0.95;0.95;;;;;;;20.30;55.38;98253.80;;;;-50
2019/11/04 05:34:46;;;;;;;0.90;0.90;;;;;;;20.31;55.33;98254.97;;;;-50
2019/11/04 05:37:46;;;;;;;0.94;0.94;;;;;;;20.34;55.31;98252.98;;;;-50
2019/11/04 05:40:46;;;;;;;0.89;0.89;;;;;;;20.37;55.34;98251.49;;;;-50
2019/11/04 05:43:46;;;;;;;1.00;1.00;;;;;;;20.40;55.35;98247.66;;;;-50
2019/11/04 05:46:46;;;;;;;0.90;0.90;;;;;;;20.42;55.41;98246.48;;;;-50
2019/11/04 05:49:46;;;;;;;0.90;0.90;;;;;;;20.45;55.46;98246.91;;;;-50
2019/11/04 05:52:46;;;;;;;0.84;0.84;;;;;;;20.48;55.47;98251.78;;;;-50
2019/11/04 05:55:46;;;;;;;0.93;0.93;;;;;;;20.51;55.52;98252.38;;;;-50
2019/11/04 05:58:46;;;;;;;0.90;0.90;;;;;;;20.53;55.56;98245.27;;;;-50
2019/11/04 06:01:46;;;;;;;0.93;0.93;;;;;;;20.56;55.58;98256.69;;;;-51
2019/11/04 06:05:06;;;;;;;0.80;0.80;;;;;;;20.59;55.56;98260.05;;;;-50
2019/11/04 06:07:45;;;;;;;0.86;0.86;;;;;;;20.61;55.59;98251.68;;;;-50
2019/11/04 06:10:46;;;;;;;0.79;0.79;;;;;;;20.64;55.62;98256.89;;;;-50
2019/11/04 06:13:46;;;;;;;0.91;0.91;;;;;;;20.67;55.61;98256.40;;;;-50
2019/11/04 06:16:46;;;;;;;0.90;0.90;;;;;;;20.69;55.64;98253.55;;;;-50
2019/11/04 06:19:46;;;;;;;0.83;0.83;;;;;;;20.72;55.66;98252.22;;;;-50
2019/11/04 06:22:46;;;;;;;0.90;0.90;;;;;;;20.75;55.60;98250.53;;;;-50
2019/11/04 06:25:46;;;;;;;0.88;0.88;;;;;;;20.77;55.63;98250.04;;;;-50
2019/11/04 06:28:46;;;;;;;0.88;0.88;;;;;;;20.80;55.63;98250.13;;;;-50
2019/11/04 06:31:46;;;;;;;0.80;0.80;;;;;;;20.82;55.62;98259.39;;;;-50
2019/11/04 06:34:46;;;;;;;0.83;0.83;;;;;;;20.84;55.57;98260.25;;;;-54
2019/11/04 06:37:46;;;;;;;0.94;0.94;;;;;;;20.86;55.60;98263.43;;;;-54
2019/11/04 06:40:46;;;;;;;0.90;0.90;;;;;;;20.87;55.58;98243.06;;;;-48
2019/11/04 06:43:46;;;;;;;0.89;0.89;;;;;;;20.88;55.54;98240.81;;;;-48
2019/11/04 06:46:46;;;;;;;1.00;1.00;;;;;;;20.89;55.49;98223.09;;;;-48
2019/11/04 06:49:46;;;;;;;0.95;0.95;;;;;;;20.91;55.53;98228.91;;;;-48
2019/11/04 06:52:46;;;;;;;0.85;0.85;;;;;;;20.92;55.52;98223.12;;;;-49
2019/11/04 06:55:45;;;;;;;0.99;0.99;;;;;;;20.94;55.49;98226.57;;;;-48
2019/11/04 06:58:46;;;;;;;0.88;0.88;;;;;;;20.95;55.49;98230.06;;;;-48
2019/11/04 07:01:46;;;;;;;0.90;0.90;;;;;;;20.95;55.43;98236.29;;;;-48
2019/11/04 07:04:46;;;;;;;0.79;0.79;;;;;;;20.97;55.42;98250.98;;;;-48
2019/11/04 07:07:46;;;;;;;0.90;0.90;;;;;;;20.98;55.37;98253.50;;;;-48
2019/11/04 07:10:46;;;;;;;1.00;1.00;;;;;;;20.99;55.40;98252.73;;;;-48
2019/11/04 07:13:45;;;;;;;1.03;0.98;;;;;;;20.99;55.34;98250.66;;;;-49
2019/11/04 07:16:45;;;;;;;1.11;0.90;;;;;;;21.00;55.34;98249.04;;;;-48
2019/11/04 07:19:45;;;;;;;0.90;0.90;;;;;;;21.00;55.29;98249.73;;;;-48
2019/11/04 07:22:46;;;;;;;7.15;1.56;;;;;;;21.05;55.31;98249.23;;;;-48
2019/11/04 07:25:46;;;;;;;1.28;0.96;;;;;;;21.07;55.43;98251.67;;;;-49
2019/11/04 07:28:46;;;;;;;2.42;1.01;;;;;;;21.08;55.01;98250.65;;;;-51
2019/11/04 07:31:46;;;;;;;2.62;0.96;;;;;;;21.06;55.00;98250.25;;;;-51
2019/11/04 07:34:45;;;;;;;1.79;0.93;;;;;;;21.07;55.00;98248.65;;;;-51
2019/11/04 07:37:45;;;;;;;1.83;0.87;;;;;;;21.07;54.97;98244.38;;;;-50
2019/11/04 07:40:45;;;;;;;1.55;1.00;;;;;;;21.07;54.86;98242.25;;;;-50
2019/11/04 07:43:45;;;;;;;1.01;0.98;;;;;;;21.08;54.86;98238.73;;;;-50
2019/11/04 07:46:46;;;;;;;0.95;0.95;;;;;;;21.09;54.89;98238.23;;;;-51
2019/11/04 07:49:46;;;;;;;5.07;0.91;;;;;;;21.09;54.83;98240.52;;;;-51
2019/11/04 07:52:46;;;;;;;1.12;1.00;;;;;;;21.10;54.84;98230.77;;;;-50
2019/11/04 07:55:46;;;;;;;0.86;0.86;;;;;;;21.10;54.79;98232.45;;;;-51
2019/11/04 07:58:46;;;;;;;4.16;1.19;;;;;;;21.09;54.82;98230.94;;;;-49
2019/11/04 08:01:46;;;;;;;2.64;1.20;;;;;;;21.09;54.81;98231.61;;;;-49
2019/11/04 08:04:46;;;;;;;3.85;1.19;;;;;;;21.09;54.31;98227.92;;;;-57
2019/11/04 08:07:46;;;;;;;2.59;1.25;;;;;;;21.11;54.65;98225.83;;;;-54
2019/11/04 08:10:46;;;;;;;2.59;1.19;;;;;;;21.11;54.66;98225.41;;;;-58
2019/11/04 08:13:46;;;;;;;3.07;1.31;;;;;;;21.13;54.19;98222.63;;;;-54
2019/11/04 08:16:46;;;;;;;2.85;1.19;;;;;;;21.14;54.71;98222.55;;;;-56
2019/11/04 08:19:46;;;;;;;2.36;1.33;;;;;;;21.16;54.82;98216.17;;;;-58
2019/11/04 08:22:45;;;;;;;2.15;1.18;;;;;;;21.18;55.03;98209.41;;;;-56
2019/11/04 08:25:46;;;;;;;1.91;1.21;;;;;;;21.19;54.95;98196.89;;;;-54
2019/11/04 08:28:46;;;;;;;1.23;1.09;;;;;;;21.20;55.11;98198.72;;;;-54
2019/11/04 08:31:46;;;;;;;2.17;1.21;;;;;;;21.23;55.37;98192.87;;;;-62
2019/11/04 08:34:46;;;;;;;2.08;1.15;;;;;;;21.23;55.14;98187.33;;;;-59
2019/11/04 08:37:46;;;;;;;2.51;1.20;;;;;;;21.25;55.23;98191.52;;;;-60
2019/11/04 08:40:45;;;;;;;1.42;1.10;;;;;;;21.26;55.60;98192.78;;;;-57
2019/11/04 08:43:46;;;;;;;2.36;1.20;;;;;;;21.22;54.08;98196.78;;;;-56
2019/11/04 08:46:46;;;;;;;2.77;1.40;;;;;;;21.21;53.59;98199.47;;;;-56
2019/11/04 08:49:46;;;;;;;3.46;1.29;;;;;;;21.21;54.00;98199.58;;;;-54
2019/11/04 08:52:45;;;;;;;1.46;1.28;;;;;;;21.21;54.02;98216.20;;;;-51
2019/11/04 08:55:46;;;;;;;2.05;1.30;;;;;;;21.21;53.88;98210.40;;;;-52
2019/11/04 08:58:46;;;;;;;2.72;1.38;;;;;;;21.23;54.19;98208.72;;;;-58
2019/11/04 09:01:45;;;;;;;3.73;1.58;;;;;;;21.26;54.58;98202.76;;;;-56
2019/11/04 09:04:46;;;;;;;2.35;1.37;;;;;;;21.29;54.75;98190.09;;;;-57
2019/11/04 09:07:46;;;;;;;1.67;1.32;;;;;;;21.30;54.95;98173.72;;;;-55
2019/11/04 09:10:46;;;;;;;3.38;1.43;;;;;;;21.32;54.81;98171.11;;;;-55
2019/11/04 09:13:46;;;;;;;1.97;1.20;;;;;;;21.35;54.71;98176.73;;;;-58
2019/11/04 09:16:46;;;;;;;2.33;1.41;;;;;;;21.36;54.56;98169.94;;;;-58
2019/11/04 09:19:46;;;;;;;2.77;1.43;;;;;;;21.38;54.50;98165.72;;;;-57
2019/11/04 09:22:46;;;;;;;5.07;1.51;;;;;;;21.38;54.61;98160.70;;;;-58
2019/11/04 09:25:46;;;;;;;4.55;1.72;;;;;;;21.39;54.61;98157.69;;;;-60
2019/11/04 09:28:45;;;;;;;2.45;1.20;;;;;;;21.41;54.84;98150.78;;;;-56
2019/11/04 09:31:46;;;;;;;4.13;1.43;;;;;;;21.42;54.83;98144.25;;;;-59
2019/11/04 09:34:46;;;;;;;2.43;1.25;;;;;;;21.42;54.86;98147.36;;;;-58
2019/11/04 09:37:46;;;;;;;1.82;1.26;;;;;;;21.44;54.83;98151.04;;;;-54
2019/11/04 09:40:46;;;;;;;1.97;1.33;;;;;;;21.46;54.99;98144.59;;;;-57
2019/11/04 09:43:46;;;;;;;1.65;1.24;;;;;;;21.46;54.84;98142.73;;;;-51
2019/11/04 09:46:45;;;;;;;1.93;1.31;;;;;;;21.47;54.73;98140.97;;;;-54
2019/11/04 09:49:46;;;;;;;2.55;1.20;;;;;;;21.47;54.64;98141.55;;;;-54
2019/11/04 09:52:46;;;;;;;2.37;1.37;;;;;;;21.49;54.58;98145.16;;;;-56
2019/11/04 09:55:46;;;;;;;2.49;1.21;;;;;;;21.47;54.53;98144.58;;;;-57
2019/11/04 09:58:45;;;;;;;1.39;1.27;;;;;;;21.47;54.39;98142.13;;;;-57
2019/11/04 10:01:46;;;;;;;2.99;1.39;;;;;;;21.46;54.49;98146.16;;;;-55
2019/11/04 10:04:46;;;;;;;3.16;1.42;;;;;;;21.45;53.69;98143.91;;;;-52
2019/11/04 10:07:46;;;;;;;2.29;1.39;;;;;;;21.44;53.58;98141.90;;;;-54
2019/11/04 10:10:45;;;;;;;1.50;1.29;;;;;;;21.43;53.62;98141.97;;;;-54
2019/11/04 10:13:46;;;;;;;1.93;1.36;;;;;;;21.42;53.33;98143.91;;;;-58
2019/11/04 10:16:45;;;;;;;2.17;1.51;;;;;;;21.43;53.43;98146.08;;;;-57
2019/11/04 10:19:46;;;;;;;1.47;1.31;;;;;;;21.43;53.24;98142.81;;;;-58
2019/11/04 10:22:46;;;;;;;2.92;1.28;;;;;;;21.42;53.22;98139.05;;;;-56
2019/11/04 10:25:46;;;;;;;1.47;1.29;;;;;;;21.42;53.30;98144.84;;;;-57
2019/11/04 10:28:45;;;;;;;3.30;1.41;;;;;;;21.42;53.32;98140.47;;;;-57
2019/11/04 10:31:46;;;;;;;2.17;1.37;;;;;;;21.42;53.23;98141.73;;;;-56
2019/11/04 10:34:46;;;;;;;2.58;1.29;;;;;;;21.42;53.02;98137.95;;;;-55
2019/11/04 10:37:45;;;;;;;2.48;1.30;;;;;;;21.41;52.97;98133.16;;;;-55
2019/11/04 10:40:45;;;;;;;2.61;1.39;;;;;;;21.43;53.03;98133.91;;;;-57
2019/11/04 10:43:45;;;;;;;3.26;1.37;;;;;;;21.43;53.37;98134.01;;;;-57
2019/11/04 10:46:46;;;;;;;1.47;1.19;;;;;;;21.44;53.46;98128.13;;;;-57
2019/11/04 10:49:45;;;;;;;2.03;1.32;;;;;;;21.44;53.61;98125.59;;;;-56
2019/11/04 10:52:45;;;;;;;1.51;1.19;;;;;;;21.44;53.65;98124.61;;;;-57
2019/11/04 10:55:46;;;;;;;2.83;1.41;;;;;;;21.44;53.59;98117.20;;;;-56
2019/11/04 10:58:45;;;;;;;1.65;1.27;;;;;;;21.44;53.66;98115.43;;;;-57
2019/11/04 11:01:45;;;;;;;1.65;1.21;;;;;;;21.44;53.66;98111.34;;;;-57
2019/11/04 11:04:46;;;;;;;2.13;1.30;;;;;;;21.44;53.73;98112.52;;;;-57
2019/11/04 11:07:45;;;;;;;3.89;1.30;;;;;;;21.44;53.98;98099.75;;;;-56
2019/11/04 11:10:46;;;;;;;4.39;1.46;;;;;;;21.44;53.97;98102.11;;;;-50
2019/11/04 11:13:46;;;;;;;3.33;1.59;;;;;;;21.42;53.54;98095.47;;;;-52
2019/11/04 11:16:46;;;;;;;4.61;1.49;;;;;;;21.42;53.54;98095.13;;;;-51
2019/11/04 11:19:46;;;;;;;7.41;1.43;;;;;;;21.40;53.31;98092.03;;;;-49
2019/11/04 11:22:46;;;;;;;2.29;1.43;;;;;;;21.43;53.47;98093.44;;;;-50
2019/11/04 11:25:46;;;;;;;3.17;1.25;;;;;;;21.45;53.63;98089.83;;;;-50
2019/11/04 11:28:46;;;;;;;2.81;1.34;;;;;;;21.46;53.76;98091.58;;;;-49
2019/11/04 11:31:45;;;;;;;2.68;1.30;;;;;;;21.46;53.69;98084.03;;;;-49
2019/11/04 11:34:45;;;;;;;1.89;1.38;;;;;;;21.48;53.78;98084.04;;;;-50
2019/11/04 11:37:46;;;;;;;3.12;1.35;;;;;;;21.48;53.73;98081.11;;;;-50
2019/11/04 11:40:46;;;;;;;1.64;1.42;;;;;;;21.48;53.76;98080.76;;;;-50
2019/11/04 11:43:46;;;;;;;1.41;1.28;;;;;;;21.49;53.66;98078.48;;;;-52
2019/11/04 11:46:46;;;;;;;1.55;1.26;;;;;;;21.50;53.66;98080.01;;;;-51
2019/11/04 11:49:45;;;;;;;1.71;1.41;;;;;;;21.50;53.62;98085.53;;;;-51
2019/11/04 11:52:45;;;;;;;1.47;1.37;;;;;;;21.51;53.85;98077.99;;;;-51
2019/11/04 11:55:46;;;;;;;1.81;1.31;;;;;;;21.51;53.74;98082.08;;;;-51
2019/11/04 11:58:46;;;;;;;2.70;1.40;;;;;;;21.52;53.74;98083.85;;;;-51
2019/11/04 12:01:46;;;;;;;2.57;1.41;;;;;;;21.52;53.74;98081.34;;;;-50
2019/11/04 12:04:46;;;;;;;1.79;1.30;;;;;;;21.52;53.69;98091.92;;;;-51
2019/11/04 12:07:45;;;;;;;1.29;1.20;;;;;;;21.51;53.80;98087.21;;;;-51
2019/11/04 12:10:46;;;;;;;1.83;1.29;;;;;;;21.50;53.77;98092.34;;;;-50
2019/11/04 12:13:46;;;;;;;1.95;1.21;;;;;;;21.51;53.78;98093.84;;;;-51
2019/11/04 12:16:46;;;;;;;1.66;1.27;;;;;;;21.49;53.75;98092.84;;;;-51
2019/11/04 12:19:45;;;;;;;2.11;1.37;;;;;;;21.50;53.75;98104.86;;;;-51
2019/11/04 12:22:46;;;;;;;1.30;1.20;;;;;;;21.50;53.74;98102.68;;;;-51
2019/11/04 12:25:45;;;;;;;1.32;1.20;;;;;;;21.50;53.77;98097.47;;;;-51
2019/11/04 12:28:46;;;;;;;1.65;1.24;;;;;;;21.49;53.74;98100.81;;;;-50
2019/11/04 12:31:46;;;;;;;2.16;1.23;;;;;;;21.49;53.84;98106.20;;;;-49
2019/11/04 12:34:45;;;;;;;1.93;1.14;;;;;;;21.49;53.80;98116.69;;;;-49
2019/11/04 12:37:46;;;;;;;1.69;1.16;;;;;;;21.49;53.75;98120.39;;;;-49
2019/11/04 12:40:45;;;;;;;1.47;1.20;;;;;;;21.50;53.77;98121.23;;;;-47
2019/11/04 12:43:45;;;;;;;2.51;1.13;;;;;;;21.50;53.82;98124.51;;;;-48
2019/11/04 12:46:46;;;;;;;1.35;1.25;;;;;;;21.49;53.77;98120.55;;;;-50
2019/11/04 12:49:46;;;;;;;2.54;1.30;;;;;;;21.50;53.11;98122.25;;;;-50
2019/11/04 12:52:46;;;;;;;1.47;1.33;;;;;;;21.52;53.44;98115.01;;;;-50
2019/11/04 12:55:45;;;;;;;2.65;1.28;;;;;;;21.52;53.77;98122.06;;;;-48
2019/11/04 12:58:46;;;;;;;2.36;1.38;;;;;;;21.54;53.74;98124.06;;;;-47
2019/11/04 13:01:45;;;;;;;2.38;1.25;;;;;;;21.55;53.77;98129.45;;;;-48
2019/11/04 13:04:45;;;;;;;4.25;1.27;;;;;;;21.57;53.81;98123.66;;;;-48
2019/11/04 13:07:45;;;;;;;1.45;1.19;;;;;;;21.58;53.89;98136.42;;;;-49
2019/11/04 13:10:45;;;;;;;1.95;1.23;;;;;;;21.58;53.87;98137.43;;;;-52
2019/11/04 13:13:46;;;;;;;2.48;1.26;;;;;;;21.59;54.01;98150.38;;;;-46
2019/11/04 13:16:45;;;;;;;4.53;1.29;;;;;;;21.59;53.87;98155.84;;;;-46
2019/11/04 13:19:46;;;;;;;1.48;1.20;;;;;;;21.61;53.85;98165.81;;;;-48
2019/11/04 13:22:46;;;;;;;3.57;1.37;;;;;;;21.61;53.68;98174.56;;;;-46
2019/11/04 13:25:45;;;;;;;1.31;1.21;;;;;;;21.61;53.65;98161.95;;;;-48
2019/11/04 13:28:46;;;;;;;2.67;1.29;;;;;;;21.62;53.81;98163.98;;;;-51
2019/11/04 13:31:45;;;;;;;2.77;1.20;;;;;;;21.62;53.86;98164.23;;;;-50
2019/11/04 13:34:45;;;;;;;1.57;1.20;;;;;;;21.62;53.85;98171.86;;;;-50
2019/11/04 13:37:45;;;;;;;1.73;1.33;;;;;;;21.61;53.85;98163.41;;;;-50
2019/11/04 13:40:45;;;;;;;2.45;1.20;;;;;;;21.61;53.78;98167.34;;;;-50
2019/11/04 13:43:46;;;;;;;1.36;1.22;;;;;;;21.60;53.76;98172.88;;;;-50
2019/11/04 13:46:46;;;;;;;1.23;1.13;;;;;;;21.60;53.84;98167.58;;;;-50
2019/11/04 13:49:46;;;;;;;1.35;1.17;;;;;;;21.59;53.81;98166.33;;;;-50
2019/11/04 13:52:46;;;;;;;1.31;1.18;;;;;;;21.59;53.81;98172.45;;;;-50
2019/11/04 13:55:46;;;;;;;1.39;1.15;;;;;;;21.58;53.84;98175.88;;;;-50
2019/11/04 13:58:46;;;;;;;2.49;1.39;;;;;;;21.58;53.80;98177.17;;;;-50
2019/11/04 14:01:45;;;;;;;2.53;1.17;;;;;;;21.58;54.00;98181.94;;;;-50
2019/11/04 14:04:45;;;;;;;1.89;1.27;;;;;;;21.59;53.89;98187.23;;;;-49
2019/11/04 14:07:45;;;;;;;1.43;1.13;;;;;;;21.58;53.92;98188.88;;;;-50
2019/11/04 14:10:45;;;;;;;1.77;1.20;;;;;;;21.57;53.88;98191.92;;;;-50
2019/11/04 14:13:45;;;;;;;1.48;1.18;;;;;;;21.57;53.86;98195.95;;;;-49
2019/11/04 14:16:45;;;;;;;2.21;1.20;;;;;;;21.57;53.86;98192.76;;;;-49
2019/11/04 14:19:46;;;;;;;2.05;1.18;;;;;;;21.56;53.84;98190.24;;;;-50
2019/11/04 14:22:45;;;;;;;1.42;1.22;;;;;;;21.56;53.89;98191.06;;;;-49
2019/11/04 14:25:45;;;;;;;1.33;1.09;;;;;;;21.56;53.83;98190.67;;;;-50
2019/11/04 14:28:45;;;;;;;1.65;1.19;;;;;;;21.55;53.89;98190.91;;;;-50
2019/11/04 14:31:45;;;;;;;2.71;1.21;;;;;;;21.55;53.84;98193.41;;;;-49
2019/11/04 14:34:45;;;;;;;1.69;1.09;;;;;;;21.55;53.89;98200.47;;;;-50
2019/11/04 14:37:45;;;;;;;1.21;1.10;;;;;;;21.55;53.87;98205.78;;;;-50
2019/11/04 14:40:45;;;;;;;1.73;1.26;;;;;;;21.54;53.87;98203.42;;;;-50
2019/11/04 14:43:45;;;;;;;1.26;1.11;;;;;;;21.54;53.91;98202.24;;;;-50
2019/11/04 14:46:45;;;;;;;1.26;1.10;;;;;;;21.54;53.91;98196.44;;;;-49
2019/11/04 14:49:45;;;;;;;1.88;1.10;;;;;;;21.53;53.84;98196.53;;;;-50
2019/11/04 14:52:45;;;;;;;2.15;1.08;;;;;;;21.53;53.92;98205.27;;;;-50
2019/11/04 14:55:45;;;;;;;1.17;1.01;;;;;;;21.53;53.83;98207.02;;;;-51
2019/11/04 14:58:45;;;;;;;1.29;1.13;;;;;;;21.53;53.92;98212.15;;;;-51
2019/11/04 15:01:45;;;;;;;1.63;1.09;;;;;;;21.54;54.11;98209.03;;;;-54
2019/11/04 15:04:46;;;;;;;1.26;1.10;;;;;;;21.55;54.23;98214.91;;;;-54
2019/11/04 15:07:45;;;;;;;1.88;1.10;;;;;;;21.56;54.35;98217.27;;;;-48
2019/11/04 15:10:46;;;;;;;3.54;1.23;;;;;;;21.58;54.36;98217.60;;;;-48
2019/11/04 15:13:45;;;;;;;2.75;1.37;;;;;;;21.56;53.89;98214.24;;;;-49
2019/11/04 15:16:46;;;;;;;2.64;1.20;;;;;;;21.57;53.98;98217.11;;;;-51
2019/11/04 15:19:46;;;;;;;1.83;1.29;;;;;;;21.58;54.09;98216.03;;;;-52
2019/11/04 15:22:46;;;;;;;2.09;1.30;;;;;;;21.59;54.21;98221.41;;;;-47
2019/11/04 15:25:46;;;;;;;2.11;1.30;;;;;;;21.60;54.24;98217.97;;;;-54
2019/11/04 15:28:46;;;;;;;3.55;1.20;;;;;;;21.60;54.36;98223.70;;;;-51
2019/11/04 15:31:45;;;;;;;3.26;1.27;;;;;;;21.61;54.54;98224.38;;;;-47
2019/11/04 15:34:45;;;;;;;1.31;1.21;;;;;;;21.62;54.59;98218.81;;;;-49
2019/11/04 15:37:45;;;;;;;2.52;1.13;;;;;;;21.63;54.54;98212.02;;;;-51
2019/11/04 15:40:46;;;;;;;3.33;1.19;;;;;;;21.63;54.50;98213.45;;;;-52
2019/11/04 15:43:45;;;;;;;1.41;1.27;;;;;;;21.64;54.49;98210.59;;;;-50
2019/11/04 15:46:45;;;;;;;1.55;1.07;;;;;;;21.64;54.55;98211.17;;;;-59
2019/11/04 15:49:45;;;;;;;1.78;1.10;;;;;;;21.65;54.48;98212.02;;;;-55
2019/11/04 15:52:45;;;;;;;1.43;1.17;;;;;;;21.67;54.39;98214.52;;;;-56
2019/11/04 15:55:45;;;;;;;1.29;1.15;;;;;;;21.68;54.56;98215.95;;;;-54
2019/11/04 15:58:46;;;;;;;3.47;1.19;;;;;;;21.68;54.36;98217.78;;;;-60
2019/11/04 16:01:45;;;;;;;1.31;1.21;;;;;;;21.69;54.50;98218.73;;;;-60
2019/11/04 16:04:46;;;;;;;1.33;1.17;;;;;;;21.69;54.56;98219.73;;;;-59
2019/11/04 16:07:45;;;;;;;1.81;1.08;;;;;;;21.70;54.61;98232.33;;;;-58
2019/11/04 16:10:46;;;;;;;1.57;1.11;;;;;;;21.71;54.63;98235.18;;;;-60
2019/11/04 16:13:46;;;;;;;1.28;1.15;;;;;;;21.71;54.69;98236.78;;;;-54
2019/11/04 16:16:45;;;;;;;1.28;1.18;;;;;;;21.71;54.74;98240.22;;;;-52
2019/11/04 16:19:45;;;;;;;2.52;1.29;;;;;;;21.71;54.65;98249.20;;;;-54
2019/11/04 16:22:45;;;;;;;1.49;1.21;;;;;;;21.72;54.67;98244.83;;;;-56
2019/11/04 16:25:45;;;;;;;1.24;1.14;;;;;;;21.72;54.67;98250.05;;;;-53
2019/11/04 16:28:46;;;;;;;2.68;1.33;;;;;;;21.73;54.68;98251.16;;;;-58
2019/11/04 16:31:45;;;;;;;3.05;1.20;;;;;;;21.74;54.75;98250.88;;;;-54
2019/11/04 16:34:46;;;;;;;1.24;1.11;;;;;;;21.74;54.66;98251.16;;;;-53
2019/11/04 16:37:45;;;;;;;2.03;1.23;;;;;;;21.75;54.70;98249.55;;;;-56
2019/11/04 16:40:45;;;;;;;1.32;1.19;;;;;;;21.75;54.43;98247.27;;;;-55
2019/11/04 16:43:46;;;;;;;2.49;1.16;;;;;;;21.75;54.49;98250.88;;;;-57
2019/11/04 16:46:45;;;;;;;1.27;1.17;;;;;;;21.76;54.47;98254.81;;;;-55
2019/11/04 16:49:45;;;;;;;2.46;1.19;;;;;;;21.76;54.50;98248.27;;;;-54
2019/11/04 16:52:45;;;;;;;1.58;1.19;;;;;;;21.76;54.42;98251.45;;;;-52
2019/11/04 16:55:46;;;;;;;1.51;1.29;;;;;;;21.77;54.52;98262.32;;;;-53
2019/11/04 16:58:45;;;;;;;1.30;1.20;;;;;;;21.77;54.45;98248.53;;;;-58
2019/11/04 17:01:45;;;;;;;1.24;1.15;;;;;;;21.77;54.53;98254.48;;;;-56